sensor_id;sensor_type;location;lat;lon;timestamp;P1;durP1;ratioP1;P2;durP2;ratioP2
9465;SDS011;4771;48.726;9.006;2022-12-15T00:00:58;29.70;;;18.23;;
9465;SDS011;4771;48.726;9.006;2022-12-15T00:03:43;27.93;;;19.10;;
9465;SDS011;4771;48.726;9.006;2022-12-15T00:06:28;25.17;;;18.17;;
9465;SDS011;4771;48.726;9.006;2022-12-15T00:09:12;28.67;;;18.87;;
9465;SDS011;4771;48.726;9.006;2022-12-15T00:11:56;30.47;;;18.60;;
9465;SDS011;4771;48.726;9.006;2022-12-15T00:14:42;29.93;;;19.13;;
9465;SDS011;4771;48.726;9.006;2022-12-15T00:17:27;27.17;;;19.20;;
9465;SDS011;4771;48.726;9.006;2022-12-15T00:20:11;30.80;;;19.23;;
9465;SDS011;4771;48.726;9.006;2022-12-15T00:22:55;29.40;;;19.43;;
9465;SDS011;4771;48.726;9.006;2022-12-15T00:25:39;29.23;;;17.90;;
9465;SDS011;4771;48.726;9.006;2022-12-15T00:28:25;28.57;;;18.80;;
9465;SDS011;4771;48.726;9.006;2022-12-15T00:31:11;28.67;;;18.57;;
9465;SDS011;4771;48.726;9.006;2022-12-15T00:33:56;30.17;;;19.30;;
9465;SDS011;4771;48.726;9.006;2022-12-15T00:36:40;27.73;;;18.50;;
9465;SDS011;4771;48.726;9.006;2022-12-15T00:39:24;30.37;;;18.43;;
9465;SDS011;4771;48.726;9.006;2022-12-15T00:41:51;28.67;;;18.87;;
9465;SDS011;4771;48.726;9.006;2022-12-15T00:44:18;28.20;;;19.20;;
9465;SDS011;4771;48.726;9.006;2022-12-15T00:46:46;28.67;;;18.57;;
9465;SDS011;4771;48.726;9.006;2022-12-15T00:49:21;27.57;;;18.87;;
9465;SDS011;4771;48.726;9.006;2022-12-15T00:52:06;26.80;;;18.47;;
9465;SDS011;4771;48.726;9.006;2022-12-15T00:54:51;28.33;;;19.10;;
9465;SDS011;4771;48.726;9.006;2022-12-15T00:57:35;27.30;;;17.87;;
9465;SDS011;4771;48.726;9.006;2022-12-15T01:00:20;25.93;;;17.93;;
9465;SDS011;4771;48.726;9.006;2022-12-15T01:03:11;31.00;;;18.87;;
9465;SDS011;4771;48.726;9.006;2022-12-15T01:05:56;26.27;;;17.77;;
9465;SDS011;4771;48.726;9.006;2022-12-15T01:08:41;29.07;;;18.10;;
9465;SDS011;4771;48.726;9.006;2022-12-15T01:11:25;30.00;;;18.53;;
9465;SDS011;4771;48.726;9.006;2022-12-15T01:14:09;27.47;;;17.73;;
9465;SDS011;4771;48.726;9.006;2022-12-15T01:16:54;27.30;;;17.80;;
9465;SDS011;4771;48.726;9.006;2022-12-15T01:19:39;27.60;;;18.30;;
9465;SDS011;4771;48.726;9.006;2022-12-15T01:22:24;29.07;;;17.60;;
9465;SDS011;4771;48.726;9.006;2022-12-15T01:24:51;26.70;;;18.07;;
9465;SDS011;4771;48.726;9.006;2022-12-15T01:27:18;27.87;;;16.80;;
9465;SDS011;4771;48.726;9.006;2022-12-15T01:29:44;27.10;;;18.07;;
9465;SDS011;4771;48.726;9.006;2022-12-15T01:32:11;29.50;;;18.47;;
9465;SDS011;4771;48.726;9.006;2022-12-15T01:34:40;31.13;;;18.93;;
9465;SDS011;4771;48.726;9.006;2022-12-15T01:37:07;27.90;;;17.70;;
9465;SDS011;4771;48.726;9.006;2022-12-15T01:39:34;28.20;;;18.03;;
9465;SDS011;4771;48.726;9.006;2022-12-15T01:42:18;32.73;;;18.97;;
9465;SDS011;4771;48.726;9.006;2022-12-15T01:44:45;26.20;;;18.20;;
9465;SDS011;4771;48.726;9.006;2022-12-15T01:47:15;27.43;;;17.57;;
9465;SDS011;4771;48.726;9.006;2022-12-15T01:49:44;27.93;;;17.00;;
9465;SDS011;4771;48.726;9.006;2022-12-15T01:52:13;30.90;;;17.93;;
9465;SDS011;4771;48.726;9.006;2022-12-15T01:54:41;28.63;;;18.37;;
9465;SDS011;4771;48.726;9.006;2022-12-15T01:57:13;29.97;;;17.27;;
9465;SDS011;4771;48.726;9.006;2022-12-15T01:59:44;25.60;;;17.30;;
9465;SDS011;4771;48.726;9.006;2022-12-15T02:02:15;30.40;;;18.37;;
9465;SDS011;4771;48.726;9.006;2022-12-15T02:04:44;25.97;;;17.87;;
9465;SDS011;4771;48.726;9.006;2022-12-15T02:07:14;27.97;;;18.40;;
9465;SDS011;4771;48.726;9.006;2022-12-15T02:09:41;25.23;;;16.50;;
9465;SDS011;4771;48.726;9.006;2022-12-15T02:12:11;25.50;;;17.50;;
9465;SDS011;4771;48.726;9.006;2022-12-15T02:14:52;26.13;;;17.40;;
9465;SDS011;4771;48.726;9.006;2022-12-15T02:17:33;26.97;;;17.80;;
9465;SDS011;4771;48.726;9.006;2022-12-15T02:29:23;33.30;;;20.90;;
9465;SDS011;4771;48.726;9.006;2022-12-15T02:32:07;29.30;;;18.30;;
9465;SDS011;4771;48.726;9.006;2022-12-15T02:34:38;31.83;;;18.37;;
9465;SDS011;4771;48.726;9.006;2022-12-15T02:37:09;28.40;;;19.67;;
9465;SDS011;4771;48.726;9.006;2022-12-15T02:39:39;31.00;;;19.83;;
9465;SDS011;4771;48.726;9.006;2022-12-15T02:42:07;30.77;;;19.60;;
9465;SDS011;4771;48.726;9.006;2022-12-15T02:44:36;27.13;;;16.80;;
9465;SDS011;4771;48.726;9.006;2022-12-15T02:47:19;28.13;;;17.50;;
9465;SDS011;4771;48.726;9.006;2022-12-15T02:49:58;29.80;;;18.40;;
9465;SDS011;4771;48.726;9.006;2022-12-15T02:52:48;31.77;;;18.00;;
9465;SDS011;4771;48.726;9.006;2022-12-15T02:55:22;31.23;;;17.83;;
9465;SDS011;4771;48.726;9.006;2022-12-15T02:57:58;26.30;;;17.37;;
9465;SDS011;4771;48.726;9.006;2022-12-15T03:00:28;27.33;;;17.60;;
9465;SDS011;4771;48.726;9.006;2022-12-15T03:02:59;30.10;;;18.20;;
9465;SDS011;4771;48.726;9.006;2022-12-15T03:05:26;30.03;;;19.00;;
9465;SDS011;4771;48.726;9.006;2022-12-15T03:07:56;31.13;;;19.20;;
9465;SDS011;4771;48.726;9.006;2022-12-15T03:10:23;32.70;;;19.20;;
9465;SDS011;4771;48.726;9.006;2022-12-15T03:12:51;29.93;;;18.73;;
9465;SDS011;4771;48.726;9.006;2022-12-15T03:15:19;31.93;;;19.07;;
9465;SDS011;4771;48.726;9.006;2022-12-15T03:17:46;37.30;;;20.53;;
9465;SDS011;4771;48.726;9.006;2022-12-15T03:20:14;33.03;;;19.87;;
9465;SDS011;4771;48.726;9.006;2022-12-15T03:22:41;28.43;;;18.80;;
9465;SDS011;4771;48.726;9.006;2022-12-15T03:25:08;35.33;;;18.80;;
9465;SDS011;4771;48.726;9.006;2022-12-15T03:27:35;31.80;;;19.07;;
9465;SDS011;4771;48.726;9.006;2022-12-15T03:30:03;30.83;;;19.60;;
9465;SDS011;4771;48.726;9.006;2022-12-15T03:32:31;31.33;;;19.03;;
9465;SDS011;4771;48.726;9.006;2022-12-15T03:34:58;30.17;;;19.40;;
9465;SDS011;4771;48.726;9.006;2022-12-15T03:37:27;29.13;;;19.63;;
9465;SDS011;4771;48.726;9.006;2022-12-15T03:39:54;32.20;;;20.67;;
9465;SDS011;4771;48.726;9.006;2022-12-15T03:42:21;34.17;;;20.60;;
9465;SDS011;4771;48.726;9.006;2022-12-15T03:45:02;33.93;;;20.90;;
9465;SDS011;4771;48.726;9.006;2022-12-15T03:47:29;33.07;;;19.97;;
9465;SDS011;4771;48.726;9.006;2022-12-15T03:49:56;34.10;;;20.70;;
9465;SDS011;4771;48.726;9.006;2022-12-15T03:52:23;30.37;;;20.77;;
9465;SDS011;4771;48.726;9.006;2022-12-15T03:54:52;33.63;;;20.83;;
9465;SDS011;4771;48.726;9.006;2022-12-15T03:57:19;32.83;;;19.77;;
9465;SDS011;4771;48.726;9.006;2022-12-15T03:59:45;29.77;;;19.53;;
9465;SDS011;4771;48.726;9.006;2022-12-15T04:02:12;33.23;;;20.63;;
9465;SDS011;4771;48.726;9.006;2022-12-15T04:04:39;30.00;;;19.17;;
9465;SDS011;4771;48.726;9.006;2022-12-15T04:07:06;30.10;;;20.00;;
9465;SDS011;4771;48.726;9.006;2022-12-15T04:09:34;30.33;;;20.27;;
9465;SDS011;4771;48.726;9.006;2022-12-15T04:12:02;31.20;;;20.30;;
9465;SDS011;4771;48.726;9.006;2022-12-15T04:14:29;33.30;;;20.20;;
9465;SDS011;4771;48.726;9.006;2022-12-15T04:16:57;31.60;;;19.73;;
9465;SDS011;4771;48.726;9.006;2022-12-15T04:19:24;34.70;;;20.37;;
9465;SDS011;4771;48.726;9.006;2022-12-15T04:22:08;32.53;;;20.07;;
9465;SDS011;4771;48.726;9.006;2022-12-15T04:24:35;32.23;;;20.43;;
9465;SDS011;4771;48.726;9.006;2022-12-15T04:27:21;35.13;;;19.80;;
9465;SDS011;4771;48.726;9.006;2022-12-15T04:30:06;35.70;;;20.43;;
9465;SDS011;4771;48.726;9.006;2022-12-15T04:32:51;33.33;;;19.70;;
9465;SDS011;4771;48.726;9.006;2022-12-15T04:35:36;29.50;;;19.50;;
9465;SDS011;4771;48.726;9.006;2022-12-15T04:38:21;31.87;;;19.50;;
9465;SDS011;4771;48.726;9.006;2022-12-15T04:41:05;33.63;;;20.93;;
9465;SDS011;4771;48.726;9.006;2022-12-15T04:43:51;34.60;;;20.33;;
9465;SDS011;4771;48.726;9.006;2022-12-15T04:46:35;33.93;;;20.57;;
9465;SDS011;4771;48.726;9.006;2022-12-15T04:49:19;34.50;;;21.10;;
9465;SDS011;4771;48.726;9.006;2022-12-15T04:52:03;34.80;;;21.17;;
9465;SDS011;4771;48.726;9.006;2022-12-15T04:54:47;32.50;;;20.27;;
9465;SDS011;4771;48.726;9.006;2022-12-15T04:57:32;33.13;;;21.33;;
9465;SDS011;4771;48.726;9.006;2022-12-15T05:00:18;36.43;;;21.77;;
9465;SDS011;4771;48.726;9.006;2022-12-15T05:03:03;36.47;;;22.00;;
9465;SDS011;4771;48.726;9.006;2022-12-15T05:05:47;36.33;;;21.83;;
9465;SDS011;4771;48.726;9.006;2022-12-15T05:08:32;35.90;;;22.20;;
9465;SDS011;4771;48.726;9.006;2022-12-15T05:11:16;36.20;;;21.53;;
9465;SDS011;4771;48.726;9.006;2022-12-15T05:14:01;38.43;;;21.30;;
9465;SDS011;4771;48.726;9.006;2022-12-15T05:16:47;34.53;;;21.83;;
9465;SDS011;4771;48.726;9.006;2022-12-15T05:19:31;41.60;;;22.83;;
9465;SDS011;4771;48.726;9.006;2022-12-15T05:22:15;37.07;;;23.20;;
9465;SDS011;4771;48.726;9.006;2022-12-15T05:24:59;37.90;;;22.53;;
9465;SDS011;4771;48.726;9.006;2022-12-15T05:27:43;38.23;;;23.77;;
9465;SDS011;4771;48.726;9.006;2022-12-15T05:30:28;42.37;;;23.00;;
9465;SDS011;4771;48.726;9.006;2022-12-15T05:33:13;39.00;;;22.67;;
9465;SDS011;4771;48.726;9.006;2022-12-15T05:35:40;41.57;;;24.30;;
9465;SDS011;4771;48.726;9.006;2022-12-15T05:38:07;44.37;;;24.33;;
9465;SDS011;4771;48.726;9.006;2022-12-15T05:40:34;44.83;;;24.70;;
9465;SDS011;4771;48.726;9.006;2022-12-15T05:43:01;49.47;;;27.43;;
9465;SDS011;4771;48.726;9.006;2022-12-15T05:45:28;43.20;;;25.83;;
9465;SDS011;4771;48.726;9.006;2022-12-15T05:47:55;43.20;;;23.53;;
9465;SDS011;4771;48.726;9.006;2022-12-15T05:50:23;40.60;;;23.60;;
9465;SDS011;4771;48.726;9.006;2022-12-15T05:52:50;38.20;;;23.73;;
9465;SDS011;4771;48.726;9.006;2022-12-15T05:55:17;42.50;;;24.40;;
9465;SDS011;4771;48.726;9.006;2022-12-15T05:57:49;43.97;;;26.53;;
9465;SDS011;4771;48.726;9.006;2022-12-15T06:00:17;55.33;;;34.03;;
9465;SDS011;4771;48.726;9.006;2022-12-15T06:02:44;49.13;;;24.63;;
9465;SDS011;4771;48.726;9.006;2022-12-15T06:05:11;40.00;;;23.23;;
9465;SDS011;4771;48.726;9.006;2022-12-15T06:07:39;44.20;;;24.07;;
9465;SDS011;4771;48.726;9.006;2022-12-15T06:10:06;41.43;;;23.20;;
9465;SDS011;4771;48.726;9.006;2022-12-15T06:12:34;37.07;;;22.43;;
9465;SDS011;4771;48.726;9.006;2022-12-15T06:15:01;38.93;;;23.60;;
9465;SDS011;4771;48.726;9.006;2022-12-15T06:17:28;39.20;;;22.63;;
9465;SDS011;4771;48.726;9.006;2022-12-15T06:19:55;35.97;;;22.57;;
9465;SDS011;4771;48.726;9.006;2022-12-15T06:22:22;38.37;;;23.03;;
9465;SDS011;4771;48.726;9.006;2022-12-15T06:24:50;40.13;;;23.23;;
9465;SDS011;4771;48.726;9.006;2022-12-15T06:27:17;40.10;;;22.60;;
9465;SDS011;4771;48.726;9.006;2022-12-15T06:29:43;40.70;;;23.80;;
9465;SDS011;4771;48.726;9.006;2022-12-15T06:32:10;37.90;;;22.73;;
9465;SDS011;4771;48.726;9.006;2022-12-15T06:34:37;43.57;;;24.80;;
9465;SDS011;4771;48.726;9.006;2022-12-15T06:37:05;41.17;;;22.93;;
9465;SDS011;4771;48.726;9.006;2022-12-15T06:39:32;39.97;;;23.37;;
9465;SDS011;4771;48.726;9.006;2022-12-15T06:42:00;40.53;;;21.90;;
9465;SDS011;4771;48.726;9.006;2022-12-15T06:44:27;36.27;;;23.10;;
9465;SDS011;4771;48.726;9.006;2022-12-15T06:46:54;40.57;;;23.47;;
9465;SDS011;4771;48.726;9.006;2022-12-15T06:49:20;37.33;;;22.97;;
9465;SDS011;4771;48.726;9.006;2022-12-15T06:51:47;38.73;;;23.20;;
9465;SDS011;4771;48.726;9.006;2022-12-15T06:54:14;39.67;;;22.60;;
9465;SDS011;4771;48.726;9.006;2022-12-15T06:56:41;34.27;;;21.37;;
9465;SDS011;4771;48.726;9.006;2022-12-15T06:59:10;39.83;;;22.13;;
9465;SDS011;4771;48.726;9.006;2022-12-15T07:01:37;35.87;;;22.33;;
9465;SDS011;4771;48.726;9.006;2022-12-15T07:04:05;37.50;;;22.57;;
9465;SDS011;4771;48.726;9.006;2022-12-15T07:06:33;41.00;;;22.93;;
9465;SDS011;4771;48.726;9.006;2022-12-15T07:09:01;34.63;;;22.63;;
9465;SDS011;4771;48.726;9.006;2022-12-15T07:11:29;36.23;;;22.37;;
9465;SDS011;4771;48.726;9.006;2022-12-15T07:13:56;40.70;;;22.03;;
9465;SDS011;4771;48.726;9.006;2022-12-15T07:16:24;36.07;;;22.07;;
9465;SDS011;4771;48.726;9.006;2022-12-15T07:18:51;38.07;;;23.03;;
9465;SDS011;4771;48.726;9.006;2022-12-15T07:21:18;38.97;;;21.80;;
9465;SDS011;4771;48.726;9.006;2022-12-15T07:23:45;38.27;;;21.93;;
9465;SDS011;4771;48.726;9.006;2022-12-15T07:26:11;34.97;;;21.20;;
9465;SDS011;4771;48.726;9.006;2022-12-15T07:28:38;40.40;;;22.27;;
9465;SDS011;4771;48.726;9.006;2022-12-15T07:31:07;35.90;;;21.97;;
9465;SDS011;4771;48.726;9.006;2022-12-15T07:33:36;36.67;;;21.77;;
9465;SDS011;4771;48.726;9.006;2022-12-15T07:36:04;36.77;;;22.43;;
9465;SDS011;4771;48.726;9.006;2022-12-15T07:38:32;36.53;;;21.60;;
9465;SDS011;4771;48.726;9.006;2022-12-15T07:40:59;38.03;;;22.30;;
9465;SDS011;4771;48.726;9.006;2022-12-15T07:43:27;38.03;;;21.80;;
9465;SDS011;4771;48.726;9.006;2022-12-15T07:45:54;38.37;;;22.17;;
9465;SDS011;4771;48.726;9.006;2022-12-15T07:48:21;35.70;;;21.03;;
9465;SDS011;4771;48.726;9.006;2022-12-15T07:50:52;36.67;;;21.40;;
9465;SDS011;4771;48.726;9.006;2022-12-15T07:53:22;34.00;;;21.97;;
9465;SDS011;4771;48.726;9.006;2022-12-15T07:55:56;38.73;;;22.53;;
9465;SDS011;4771;48.726;9.006;2022-12-15T07:58:24;34.67;;;21.83;;
9465;SDS011;4771;48.726;9.006;2022-12-15T08:00:51;36.63;;;21.67;;
9465;SDS011;4771;48.726;9.006;2022-12-15T08:03:18;35.17;;;21.97;;
9465;SDS011;4771;48.726;9.006;2022-12-15T08:05:46;39.60;;;22.60;;
9465;SDS011;4771;48.726;9.006;2022-12-15T08:08:14;37.67;;;23.87;;
9465;SDS011;4771;48.726;9.006;2022-12-15T08:10:42;38.73;;;23.57;;
9465;SDS011;4771;48.726;9.006;2022-12-15T08:13:09;37.80;;;22.20;;
9465;SDS011;4771;48.726;9.006;2022-12-15T08:15:37;37.33;;;22.50;;
9465;SDS011;4771;48.726;9.006;2022-12-15T08:18:04;36.60;;;22.30;;
9465;SDS011;4771;48.726;9.006;2022-12-15T08:20:33;39.03;;;21.47;;
9465;SDS011;4771;48.726;9.006;2022-12-15T08:23:00;38.67;;;21.47;;
9465;SDS011;4771;48.726;9.006;2022-12-15T08:25:28;38.30;;;23.43;;
9465;SDS011;4771;48.726;9.006;2022-12-15T08:27:55;35.67;;;21.80;;
9465;SDS011;4771;48.726;9.006;2022-12-15T08:30:22;35.20;;;21.23;;
9465;SDS011;4771;48.726;9.006;2022-12-15T08:32:49;38.27;;;21.73;;
9465;SDS011;4771;48.726;9.006;2022-12-15T08:35:16;37.43;;;22.77;;
9465;SDS011;4771;48.726;9.006;2022-12-15T08:37:43;36.90;;;22.30;;
9465;SDS011;4771;48.726;9.006;2022-12-15T08:40:10;38.90;;;21.77;;
9465;SDS011;4771;48.726;9.006;2022-12-15T08:42:39;35.60;;;21.80;;
9465;SDS011;4771;48.726;9.006;2022-12-15T08:45:06;34.47;;;21.73;;
9465;SDS011;4771;48.726;9.006;2022-12-15T08:47:34;36.17;;;21.37;;
9465;SDS011;4771;48.726;9.006;2022-12-15T08:50:02;36.67;;;21.23;;
9465;SDS011;4771;48.726;9.006;2022-12-15T08:52:29;36.13;;;21.70;;
9465;SDS011;4771;48.726;9.006;2022-12-15T08:54:56;40.37;;;22.97;;
9465;SDS011;4771;48.726;9.006;2022-12-15T08:57:23;48.67;;;26.00;;
9465;SDS011;4771;48.726;9.006;2022-12-15T08:59:51;39.97;;;22.97;;
9465;SDS011;4771;48.726;9.006;2022-12-15T09:02:18;40.67;;;23.17;;
9465;SDS011;4771;48.726;9.006;2022-12-15T09:04:45;34.33;;;22.27;;
9465;SDS011;4771;48.726;9.006;2022-12-15T09:07:12;32.80;;;21.03;;
9465;SDS011;4771;48.726;9.006;2022-12-15T09:09:39;38.93;;;22.77;;
9465;SDS011;4771;48.726;9.006;2022-12-15T09:12:08;32.23;;;21.10;;
9465;SDS011;4771;48.726;9.006;2022-12-15T09:14:36;38.90;;;22.60;;
9465;SDS011;4771;48.726;9.006;2022-12-15T09:17:04;37.30;;;23.03;;
9465;SDS011;4771;48.726;9.006;2022-12-15T09:19:31;37.70;;;23.43;;
9465;SDS011;4771;48.726;9.006;2022-12-15T09:22:00;36.20;;;21.67;;
9465;SDS011;4771;48.726;9.006;2022-12-15T09:24:27;38.50;;;22.47;;
9465;SDS011;4771;48.726;9.006;2022-12-15T09:26:54;38.50;;;22.53;;
9465;SDS011;4771;48.726;9.006;2022-12-15T09:29:21;37.07;;;21.87;;
9465;SDS011;4771;48.726;9.006;2022-12-15T09:31:48;34.10;;;21.53;;
9465;SDS011;4771;48.726;9.006;2022-12-15T09:34:16;36.43;;;21.70;;
9465;SDS011;4771;48.726;9.006;2022-12-15T09:36:43;33.33;;;20.63;;
9465;SDS011;4771;48.726;9.006;2022-12-15T09:39:10;37.27;;;21.70;;
9465;SDS011;4771;48.726;9.006;2022-12-15T09:41:37;35.87;;;21.57;;
9465;SDS011;4771;48.726;9.006;2022-12-15T09:44:06;36.80;;;23.70;;
9465;SDS011;4771;48.726;9.006;2022-12-15T09:49:49;36.97;;;22.77;;
9465;SDS011;4771;48.726;9.006;2022-12-15T09:52:20;38.63;;;22.83;;
9465;SDS011;4771;48.726;9.006;2022-12-15T09:54:50;37.93;;;23.20;;
9465;SDS011;4771;48.726;9.006;2022-12-15T09:57:30;36.80;;;23.93;;
9465;SDS011;4771;48.726;9.006;2022-12-15T10:00:06;41.47;;;25.10;;
9465;SDS011;4771;48.726;9.006;2022-12-15T10:02:47;42.10;;;24.73;;
9465;SDS011;4771;48.726;9.006;2022-12-15T10:05:31;41.20;;;24.10;;
9465;SDS011;4771;48.726;9.006;2022-12-15T10:08:03;40.90;;;24.53;;
9465;SDS011;4771;48.726;9.006;2022-12-15T10:10:32;42.17;;;24.63;;
9465;SDS011;4771;48.726;9.006;2022-12-15T10:13:05;40.90;;;23.67;;
9465;SDS011;4771;48.726;9.006;2022-12-15T10:15:40;41.50;;;24.83;;
9465;SDS011;4771;48.726;9.006;2022-12-15T10:18:14;43.43;;;24.17;;
9465;SDS011;4771;48.726;9.006;2022-12-15T10:20:50;42.20;;;24.20;;
9465;SDS011;4771;48.726;9.006;2022-12-15T10:23:23;43.43;;;24.57;;
9465;SDS011;4771;48.726;9.006;2022-12-15T10:25:54;40.97;;;25.17;;
9465;SDS011;4771;48.726;9.006;2022-12-15T10:28:29;46.67;;;25.63;;
9465;SDS011;4771;48.726;9.006;2022-12-15T10:31:17;38.90;;;23.57;;
9465;SDS011;4771;48.726;9.006;2022-12-15T10:33:51;42.13;;;24.67;;
9465;SDS011;4771;48.726;9.006;2022-12-15T10:36:25;43.77;;;23.53;;
9465;SDS011;4771;48.726;9.006;2022-12-15T10:38:52;37.83;;;22.87;;
9465;SDS011;4771;48.726;9.006;2022-12-15T10:41:19;40.83;;;24.63;;
9465;SDS011;4771;48.726;9.006;2022-12-15T10:43:48;46.60;;;30.13;;
9465;SDS011;4771;48.726;9.006;2022-12-15T10:46:17;42.13;;;24.57;;
9465;SDS011;4771;48.726;9.006;2022-12-15T10:48:46;40.33;;;23.40;;
9465;SDS011;4771;48.726;9.006;2022-12-15T10:51:15;41.57;;;23.77;;
9465;SDS011;4771;48.726;9.006;2022-12-15T10:53:46;40.53;;;23.73;;
9465;SDS011;4771;48.726;9.006;2022-12-15T10:56:22;39.37;;;22.90;;
9465;SDS011;4771;48.726;9.006;2022-12-15T10:58:51;37.70;;;22.10;;
9465;SDS011;4771;48.726;9.006;2022-12-15T11:01:19;37.17;;;22.67;;
9465;SDS011;4771;48.726;9.006;2022-12-15T11:03:49;38.90;;;21.67;;
9465;SDS011;4771;48.726;9.006;2022-12-15T11:06:18;37.23;;;22.67;;
9465;SDS011;4771;48.726;9.006;2022-12-15T11:08:48;39.33;;;23.70;;
9465;SDS011;4771;48.726;9.006;2022-12-15T11:11:24;39.40;;;22.43;;
9465;SDS011;4771;48.726;9.006;2022-12-15T11:14:12;37.97;;;23.17;;
9465;SDS011;4771;48.726;9.006;2022-12-15T11:16:43;41.97;;;22.27;;
9465;SDS011;4771;48.726;9.006;2022-12-15T11:19:13;39.87;;;23.43;;
9465;SDS011;4771;48.726;9.006;2022-12-15T11:21:46;43.80;;;24.10;;
9465;SDS011;4771;48.726;9.006;2022-12-15T11:24:19;45.37;;;25.33;;
9465;SDS011;4771;48.726;9.006;2022-12-15T11:26:54;41.47;;;24.33;;
9465;SDS011;4771;48.726;9.006;2022-12-15T11:29:26;36.47;;;22.90;;
9465;SDS011;4771;48.726;9.006;2022-12-15T11:31:58;42.23;;;22.23;;
9465;SDS011;4771;48.726;9.006;2022-12-15T11:34:30;43.90;;;23.90;;
9465;SDS011;4771;48.726;9.006;2022-12-15T11:37:13;39.90;;;23.23;;
9465;SDS011;4771;48.726;9.006;2022-12-15T11:40:03;34.17;;;21.30;;
9465;SDS011;4771;48.726;9.006;2022-12-15T11:42:44;40.43;;;23.27;;
9465;SDS011;4771;48.726;9.006;2022-12-15T11:45:21;40.83;;;29.48;;
9465;SDS011;4771;48.726;9.006;2022-12-15T11:47:51;37.50;;;24.50;;
9465;SDS011;4771;48.726;9.006;2022-12-15T11:50:26;34.87;;;21.70;;
9465;SDS011;4771;48.726;9.006;2022-12-15T11:53:02;37.87;;;22.80;;
9465;SDS011;4771;48.726;9.006;2022-12-15T11:55:38;40.47;;;23.77;;
9465;SDS011;4771;48.726;9.006;2022-12-15T11:58:20;38.73;;;23.90;;
9465;SDS011;4771;48.726;9.006;2022-12-15T12:01:01;40.27;;;22.73;;
9465;SDS011;4771;48.726;9.006;2022-12-15T12:03:41;40.30;;;22.67;;
9465;SDS011;4771;48.726;9.006;2022-12-15T12:06:15;36.00;;;23.77;;
9465;SDS011;4771;48.726;9.006;2022-12-15T12:08:56;39.87;;;21.77;;
9465;SDS011;4771;48.726;9.006;2022-12-15T12:11:36;38.67;;;22.50;;
9465;SDS011;4771;48.726;9.006;2022-12-15T12:14:16;37.47;;;22.27;;
9465;SDS011;4771;48.726;9.006;2022-12-15T12:16:56;37.20;;;23.03;;
9465;SDS011;4771;48.726;9.006;2022-12-15T12:19:29;38.43;;;22.17;;
9465;SDS011;4771;48.726;9.006;2022-12-15T12:22:01;37.17;;;21.73;;
9465;SDS011;4771;48.726;9.006;2022-12-15T12:24:32;38.97;;;22.27;;
9465;SDS011;4771;48.726;9.006;2022-12-15T12:27:08;38.03;;;23.37;;
9465;SDS011;4771;48.726;9.006;2022-12-15T12:29:39;36.90;;;22.87;;
9465;SDS011;4771;48.726;9.006;2022-12-15T12:32:12;42.13;;;23.43;;
9465;SDS011;4771;48.726;9.006;2022-12-15T12:34:53;37.83;;;21.60;;
9465;SDS011;4771;48.726;9.006;2022-12-15T12:37:25;34.43;;;22.03;;
9465;SDS011;4771;48.726;9.006;2022-12-15T12:39:59;35.97;;;22.20;;
9465;SDS011;4771;48.726;9.006;2022-12-15T12:42:32;34.23;;;21.40;;
9465;SDS011;4771;48.726;9.006;2022-12-15T12:45:03;39.17;;;22.50;;
9465;SDS011;4771;48.726;9.006;2022-12-15T12:47:31;37.53;;;22.60;;
9465;SDS011;4771;48.726;9.006;2022-12-15T12:50:01;40.67;;;23.07;;
9465;SDS011;4771;48.726;9.006;2022-12-15T12:52:33;33.27;;;21.73;;
9465;SDS011;4771;48.726;9.006;2022-12-15T12:55:03;37.43;;;22.00;;
9465;SDS011;4771;48.726;9.006;2022-12-15T12:57:49;36.10;;;22.67;;
9465;SDS011;4771;48.726;9.006;2022-12-15T13:00:17;33.80;;;22.23;;
9465;SDS011;4771;48.726;9.006;2022-12-15T13:02:53;35.37;;;22.10;;
9465;SDS011;4771;48.726;9.006;2022-12-15T13:05:34;37.47;;;21.57;;
9465;SDS011;4771;48.726;9.006;2022-12-15T13:14:26;36.10;;;22.50;;
9465;SDS011;4771;48.726;9.006;2022-12-15T13:17:10;36.33;;;22.27;;
9465;SDS011;4771;48.726;9.006;2022-12-15T13:22:55;37.03;;;22.03;;
9465;SDS011;4771;48.726;9.006;2022-12-15T13:25:59;35.13;;;21.80;;
9465;SDS011;4771;48.726;9.006;2022-12-15T13:28:40;33.20;;;21.53;;
9465;SDS011;4771;48.726;9.006;2022-12-15T13:31:30;35.33;;;21.70;;
9465;SDS011;4771;48.726;9.006;2022-12-15T13:34:09;36.63;;;22.03;;
9465;SDS011;4771;48.726;9.006;2022-12-15T13:36:46;33.20;;;21.17;;
9465;SDS011;4771;48.726;9.006;2022-12-15T13:39:31;37.43;;;21.97;;
9465;SDS011;4771;48.726;9.006;2022-12-15T13:42:17;35.03;;;20.80;;
9465;SDS011;4771;48.726;9.006;2022-12-15T13:44:56;33.83;;;21.27;;
9465;SDS011;4771;48.726;9.006;2022-12-15T13:48:03;37.60;;;21.90;;
9465;SDS011;4771;48.726;9.006;2022-12-15T13:50:38;35.57;;;20.23;;
9465;SDS011;4771;48.726;9.006;2022-12-15T13:53:13;38.30;;;22.67;;
9465;SDS011;4771;48.726;9.006;2022-12-15T13:55:53;38.77;;;22.10;;
9465;SDS011;4771;48.726;9.006;2022-12-15T13:58:29;37.27;;;21.27;;
9465;SDS011;4771;48.726;9.006;2022-12-15T14:01:15;40.47;;;22.33;;
9465;SDS011;4771;48.726;9.006;2022-12-15T14:03:56;35.07;;;21.33;;
9465;SDS011;4771;48.726;9.006;2022-12-15T14:06:26;34.90;;;21.33;;
9465;SDS011;4771;48.726;9.006;2022-12-15T14:08:56;34.93;;;21.27;;
9465;SDS011;4771;48.726;9.006;2022-12-15T14:11:23;40.13;;;22.03;;
9465;SDS011;4771;48.726;9.006;2022-12-15T14:13:57;38.00;;;21.87;;
9465;SDS011;4771;48.726;9.006;2022-12-15T14:16:25;36.87;;;21.73;;
9465;SDS011;4771;48.726;9.006;2022-12-15T14:19:10;36.50;;;21.73;;
9465;SDS011;4771;48.726;9.006;2022-12-15T14:21:46;34.33;;;21.03;;
9465;SDS011;4771;48.726;9.006;2022-12-15T14:26:48;34.50;;;20.50;;
9465;SDS011;4771;48.726;9.006;2022-12-15T14:29:15;38.60;;;22.37;;
9465;SDS011;4771;48.726;9.006;2022-12-15T14:31:43;36.40;;;22.00;;
9465;SDS011;4771;48.726;9.006;2022-12-15T14:34:16;38.57;;;23.40;;
9465;SDS011;4771;48.726;9.006;2022-12-15T14:36:47;34.83;;;21.17;;
9465;SDS011;4771;48.726;9.006;2022-12-15T14:39:17;36.70;;;23.70;;
9465;SDS011;4771;48.726;9.006;2022-12-15T14:41:47;36.63;;;21.73;;
9465;SDS011;4771;48.726;9.006;2022-12-15T14:44:16;37.77;;;21.60;;
9465;SDS011;4771;48.726;9.006;2022-12-15T14:46:46;38.83;;;22.07;;
9465;SDS011;4771;48.726;9.006;2022-12-15T14:49:17;38.90;;;22.03;;
9465;SDS011;4771;48.726;9.006;2022-12-15T14:51:47;35.37;;;22.07;;
9465;SDS011;4771;48.726;9.006;2022-12-15T14:54:30;36.20;;;22.20;;
9465;SDS011;4771;48.726;9.006;2022-12-15T14:57:00;38.97;;;21.97;;
9465;SDS011;4771;48.726;9.006;2022-12-15T14:59:30;35.80;;;21.83;;
9465;SDS011;4771;48.726;9.006;2022-12-15T15:02:00;36.53;;;21.03;;
9465;SDS011;4771;48.726;9.006;2022-12-15T15:04:38;36.23;;;20.50;;
9465;SDS011;4771;48.726;9.006;2022-12-15T15:07:06;36.00;;;21.37;;
9465;SDS011;4771;48.726;9.006;2022-12-15T15:09:41;35.77;;;20.57;;
9465;SDS011;4771;48.726;9.006;2022-12-15T15:12:12;86.43;;;47.30;;
9465;SDS011;4771;48.726;9.006;2022-12-15T15:14:41;55.27;;;32.30;;
9465;SDS011;4771;48.726;9.006;2022-12-15T15:17:20;36.83;;;23.00;;
9465;SDS011;4771;48.726;9.006;2022-12-15T15:19:52;34.23;;;22.63;;
9465;SDS011;4771;48.726;9.006;2022-12-15T15:22:24;35.67;;;20.90;;
9465;SDS011;4771;48.726;9.006;2022-12-15T15:25:24;36.37;;;20.80;;
9465;SDS011;4771;48.726;9.006;2022-12-15T15:28:00;37.23;;;22.30;;
9465;SDS011;4771;48.726;9.006;2022-12-15T15:30:28;34.73;;;20.33;;
9465;SDS011;4771;48.726;9.006;2022-12-15T15:33:06;36.03;;;20.97;;
9465;SDS011;4771;48.726;9.006;2022-12-15T15:35:35;40.10;;;28.20;;
9465;SDS011;4771;48.726;9.006;2022-12-15T15:38:03;34.90;;;21.03;;
9465;SDS011;4771;48.726;9.006;2022-12-15T15:40:32;35.27;;;20.43;;
9465;SDS011;4771;48.726;9.006;2022-12-15T15:42:59;35.10;;;21.07;;
9465;SDS011;4771;48.726;9.006;2022-12-15T15:45:25;33.83;;;20.37;;
9465;SDS011;4771;48.726;9.006;2022-12-15T15:47:52;41.27;;;23.40;;